Time;durP1;ratioP1;P1;durP2;ratioP2;P2;SDS_P1;SDS_P2;PMS_P1;PMS_P2;Temp;Humidity;BMP_temperature;BMP_pressure;BME280_temperature;BME280_humidity;BME280_pressure;Samples;Min_cycle;Max_cycle;Signal;HPM_P1;HPM_P2
2022/04/20 00:00:35;;;;;;;2.47;2.27;;;5.50;78.00;;;;;;5055516;28;20269;-70
2022/04/20 00:03:01;;;;;;;2.60;2.40;;;5.50;78.10;;;;;;5056372;28;20316;-70
2022/04/20 00:05:27;;;;;;;2.60;2.40;;;5.50;78.40;;;;;;5055328;28;20190;-70
2022/04/20 00:07:52;;;;;;;4.47;2.60;;;5.40;78.30;;;;;;5055345;28;20209;-70
2022/04/20 00:10:18;;;;;;;3.73;2.27;;;5.30;78.80;;;;;;5055358;28;20220;-70
2022/04/20 00:12:44;;;;;;;3.00;2.40;;;5.30;79.00;;;;;;5055615;28;20181;-70
2022/04/20 00:15:09;;;;;;;2.97;2.50;;;5.20;79.70;;;;;;5055617;28;20629;-70
2022/04/20 00:17:35;;;;;;;3.60;2.57;;;5.10;80.40;;;;;;5056308;28;20541;-70
2022/04/20 00:20:01;;;;;;;3.33;2.67;;;5.00;81.40;;;;;;5056246;28;20228;-70
2022/04/20 00:22:26;;;;;;;3.00;2.30;;;5.10;81.60;;;;;;5055408;28;20205;-70
2022/04/20 00:24:52;;;;;;;3.47;2.40;;;5.10;81.50;;;;;;5055416;28;20182;-70
2022/04/20 00:27:18;;;;;;;3.10;2.20;;;5.10;81.60;;;;;;5055237;28;20206;-70
2022/04/20 00:29:43;;;;;;;2.90;2.60;;;5.20;81.70;;;;;;5056239;28;20170;-70
2022/04/20 00:32:09;;;;;;;2.80;2.60;;;5.20;81.70;;;;;;5056034;28;20202;-70
2022/04/20 00:34:35;;;;;;;3.03;2.37;;;5.20;81.90;;;;;;5055511;28;20213;-70
2022/04/20 00:37:01;;;;;;;3.37;2.30;;;5.20;81.00;;;;;;5054705;28;20209;-70
2022/04/20 00:39:26;;;;;;;4.40;2.47;;;5.10;81.00;;;;;;5056029;28;20634;-70
2022/04/20 00:41:52;;;;;;;2.70;2.30;;;5.20;81.20;;;;;;5054748;28;20211;-70
2022/04/20 00:44:19;;;;;;;3.17;2.17;;;5.20;81.50;;;;;;5054726;28;20173;-70
2022/04/20 00:46:47;;;;;;;3.37;2.37;;;5.00;81.60;;;;;;5054580;28;20209;-70
2022/04/20 00:49:14;;;;;;;4.63;2.73;;;4.90;82.20;;;;;;5056616;28;20213;-70
2022/04/20 00:54:53;;;;;;;2.63;2.43;;;4.70;83.80;;;;;;5056309;28;20169;-70
2022/04/20 00:57:19;;;;;;;3.10;2.60;;;4.70;83.90;;;;;;5054393;28;20194;-70
2022/04/20 00:59:45;;;;;;;2.47;2.27;;;4.60;84.30;;;;;;5055525;28;20182;-70
2022/04/20 01:02:11;;;;;;;2.60;2.40;;;4.50;85.20;;;;;;5055832;28;20198;-70
2022/04/20 01:04:38;;;;;;;3.03;2.70;;;4.50;85.90;;;;;;5054045;28;20186;-70
2022/04/20 01:07:11;;;;;;;3.07;2.80;;;4.50;86.10;;;;;;5054152;28;20201;-70
2022/04/20 01:09:38;;;;;;;2.90;2.67;;;4.40;86.20;;;;;;5054026;28;20174;-70
2022/04/20 01:12:04;;;;;;;3.77;3.13;;;4.40;86.90;;;;;;5055082;28;20296;-70
2022/04/20 01:14:30;;;;;;;3.20;2.90;;;4.50;87.70;;;;;;5054096;28;20178;-70
2022/04/20 01:16:56;;;;;;;6.50;3.17;;;4.50;87.10;;;;;;5055215;28;20194;-70
2022/04/20 01:19:21;;;;;;;6.00;2.90;;;4.40;86.80;;;;;;5053932;28;20656;-70
2022/04/20 01:21:47;;;;;;;3.53;3.00;;;4.40;87.40;;;;;;5053934;28;20193;-70
2022/04/20 01:24:12;;;;;;;4.40;2.83;;;4.40;88.60;;;;;;5054481;28;20181;-70
2022/04/20 01:26:39;;;;;;;3.30;2.97;;;4.30;88.90;;;;;;5055034;28;20255;-70
2022/04/20 01:29:06;;;;;;;3.37;3.00;;;4.30;89.20;;;;;;5053871;28;20247;-70
2022/04/20 01:31:31;;;;;;;3.77;3.03;;;4.20;89.00;;;;;;5054004;28;20300;-70
2022/04/20 01:33:57;;;;;;;3.70;3.30;;;4.10;90.10;;;;;;5054499;28;20257;-70
2022/04/20 01:36:23;;;;;;;3.90;3.20;;;4.00;90.30;;;;;;5054229;28;20198;-70
2022/04/20 01:38:49;;;;;;;3.77;3.37;;;3.90;91.00;;;;;;5054043;28;20190;-70
2022/04/20 01:41:15;;;;;;;3.20;2.90;;;3.80;91.80;;;;;;5055876;28;20189;-70
2022/04/20 01:43:40;;;;;;;6.27;3.50;;;3.80;92.20;;;;;;5053938;28;20517;-70
2022/04/20 01:46:06;;;;;;;3.27;2.97;;;3.80;93.20;;;;;;5053808;28;20221;-70
2022/04/20 01:48:31;;;;;;;3.97;3.17;;;3.60;94.00;;;;;;5053445;28;20170;-70
2022/04/20 01:53:41;;;;;;;5.07;3.70;;;3.60;94.60;;;;;;5054865;28;20640;-70
2022/04/20 01:56:07;;;;;;;6.37;3.83;;;3.70;94.80;;;;;;5054451;28;20190;-70
2022/04/20 01:58:37;;;;;;;5.50;4.17;;;3.70;94.70;;;;;;5054730;28;20167;-70
2022/04/20 02:02:34;;;;;;;5.80;3.57;;;3.70;94.50;;;;;;5055066;28;20319;-70
2022/04/20 02:03:48;;;;;;;6.80;5.70;;;3.70;94.30;;;;;;5054289;28;20181;-70
2022/04/20 02:06:14;;;;;;;16.60;13.03;;;3.80;94.10;;;;;;5052939;28;20202;-70
2022/04/20 02:08:40;;;;;;;12.03;6.83;;;3.80;93.40;;;;;;5053129;28;20182;-70
2022/04/20 02:11:06;;;;;;;4.53;4.03;;;3.80;93.20;;;;;;5052885;28;20209;-70
2022/04/20 02:13:32;;;;;;;4.77;4.03;;;3.70;94.10;;;;;;5053376;28;20177;-70
2022/04/20 02:15:58;;;;;;;4.13;3.47;;;3.70;93.80;;;;;;5053399;28;20193;-70
2022/04/20 02:18:23;;;;;;;3.87;3.07;;;3.80;93.50;;;;;;5052945;28;20174;-70
2022/04/20 02:20:49;;;;;;;5.00;3.20;;;3.70;93.20;;;;;;5052867;28;20652;-70
2022/04/20 02:23:14;;;;;;;4.20;2.93;;;3.80;93.40;;;;;;5054375;28;20170;-70
2022/04/20 02:25:40;;;;;;;3.83;2.80;;;3.80;92.40;;;;;;5053738;28;20198;-69
2022/04/20 02:28:06;;;;;;;3.10;2.77;;;3.80;92.40;;;;;;5053670;28;20236;-69
2022/04/20 02:30:31;;;;;;;3.03;2.73;;;3.80;92.70;;;;;;5054054;28;20213;-69
2022/04/20 02:32:57;;;;;;;4.63;2.80;;;3.70;92.80;;;;;;5052637;28;20190;-69
2022/04/20 02:35:22;;;;;;;7.83;3.30;;;3.70;93.10;;;;;;5052485;28;20185;-69
2022/04/20 02:37:48;;;;;;;4.83;3.27;;;3.50;93.70;;;;;;5052933;28;20174;-69
2022/04/20 02:40:13;;;;;;;6.13;3.23;;;3.50;94.50;;;;;;5053350;28;20182;-69
2022/04/20 02:42:39;;;;;;;7.27;3.13;;;3.50;94.90;;;;;;5054054;28;20174;-69
2022/04/20 02:45:05;;;;;;;8.03;3.60;;;3.50;95.80;;;;;;5052449;28;20170;-69
2022/04/20 02:47:30;;;;;;;5.17;3.40;;;3.50;95.20;;;;;;5052693;28;20194;-69
2022/04/20 02:49:56;;;;;;;6.03;3.63;;;3.50;95.40;;;;;;5053604;28;20272;-69
2022/04/20 02:52:22;;;;;;;6.87;3.60;;;3.50;95.10;;;;;;5052557;28;20544;-69
2022/04/20 02:54:47;;;;;;;6.50;4.27;;;3.60;94.60;;;;;;5053216;28;20288;-69
2022/04/20 02:57:13;;;;;;;12.50;3.90;;;3.50;93.70;;;;;;5053403;28;20566;-69
2022/04/20 02:59:38;;;;;;;8.57;3.60;;;3.30;94.80;;;;;;5053482;28;20606;-69
2022/04/20 03:02:05;;;;;;;7.40;3.53;;;3.00;97.00;;;;;;5052198;28;20178;-69
2022/04/20 03:04:30;;;;;;;6.47;3.43;;;2.90;98.30;;;;;;5052496;28;20209;-69
2022/04/20 03:06:56;;;;;;;4.20;3.80;;;2.80;98.80;;;;;;5052197;28;20194;-69
2022/04/20 03:09:21;;;;;;;5.97;3.67;;;2.70;99.90;;;;;;5052303;28;20182;-69
2022/04/20 03:11:47;;;;;;;7.83;3.80;;;2.60;99.90;;;;;;5052099;28;20198;-69
2022/04/20 03:14:13;;;;;;;5.17;3.33;;;2.60;99.90;;;;;;5052110;28;20188;-67
2022/04/20 03:16:38;;;;;;;4.33;3.37;;;2.50;99.90;;;;;;5052321;28;20194;-67
2022/04/20 03:19:04;;;;;;;5.83;3.67;;;2.40;99.90;;;;;;5052071;28;20170;-69
2022/04/20 03:21:30;;;;;;;5.93;3.37;;;2.50;99.90;;;;;;5052861;28;20204;-69
2022/04/20 03:23:55;;;;;;;7.83;3.83;;;2.50;99.90;;;;;;5052802;28;20181;-67
2022/04/20 03:26:21;;;;;;;6.77;3.50;;;2.40;99.90;;;;;;5052367;28;20198;-67
2022/04/20 03:28:46;;;;;;;6.73;3.70;;;2.40;99.90;;;;;;5056970;28;20184;-66
2022/04/20 03:31:12;;;;;;;5.30;4.00;;;2.30;99.90;;;;;;5057458;28;20212;-66
2022/04/20 03:33:37;;;;;;;6.63;5.83;;;2.20;99.90;;;;;;5056461;28;20212;-69
2022/04/20 03:36:06;;;;;;;6.37;4.80;;;2.30;99.90;;;;;;5056014;28;20197;-69
2022/04/20 03:38:31;;;;;;;5.70;3.93;;;2.50;99.90;;;;;;5055998;28;20202;-69
2022/04/20 03:40:57;;;;;;;8.20;3.87;;;2.50;99.90;;;;;;5057104;28;20210;-69
2022/04/20 03:43:23;;;;;;;6.53;4.37;;;2.40;99.90;;;;;;5056147;28;20545;-69
2022/04/20 03:45:50;;;;;;;7.50;3.97;;;2.40;99.90;;;;;;5055827;28;20197;-69
2022/04/20 03:48:16;;;;;;;9.07;4.00;;;2.50;99.90;;;;;;5056012;28;20189;-69
2022/04/20 03:50:41;;;;;;;6.40;3.50;;;2.50;99.90;;;;;;5056787;28;20210;-69
2022/04/20 03:53:07;;;;;;;6.43;3.80;;;2.50;99.90;;;;;;5056852;28;20178;-69
2022/04/20 03:55:33;;;;;;;8.07;4.40;;;2.50;99.90;;;;;;5056062;28;20259;-69
2022/04/20 03:57:58;;;;;;;6.47;4.10;;;2.50;99.90;;;;;;5056621;28;20185;-69
2022/04/20 04:00:25;;;;;;;9.40;4.17;;;2.40;99.90;;;;;;5056108;28;20182;-69
2022/04/20 04:02:51;;;;;;;7.13;3.67;;;2.30;99.90;;;;;;5056985;28;20210;-69
2022/04/20 04:05:17;;;;;;;6.17;3.70;;;2.20;99.90;;;;;;5055378;28;20214;-69
2022/04/20 04:07:43;;;;;;;8.63;3.53;;;2.30;99.90;;;;;;5055397;28;20178;-69
2022/04/20 04:10:08;;;;;;;6.07;3.63;;;2.30;99.90;;;;;;5055127;28;20205;-69
2022/04/20 04:12:34;;;;;;;5.70;3.57;;;2.20;99.90;;;;;;5056513;28;20209;-69
2022/04/20 04:15:00;;;;;;;5.47;3.33;;;2.20;99.90;;;;;;5056766;28;20236;-70
2022/04/20 04:17:26;;;;;;;4.47;3.37;;;2.20;99.90;;;;;;5055226;28;20221;-69
2022/04/20 04:20:04;;;;;;;6.10;3.33;;;2.30;99.90;;;;;;5056392;28;20178;-69
2022/04/20 04:22:30;;;;;;;3.93;3.30;;;2.40;99.90;;;;;;5056645;28;20170;-70
2022/04/20 04:24:56;;;;;;;5.30;3.60;;;2.50;99.90;;;;;;5056890;28;20244;-71
2022/04/20 04:27:22;;;;;;;4.10;3.10;;;2.50;99.90;;;;;;5056550;28;20194;-70
2022/04/20 04:29:48;;;;;;;7.67;3.13;;;2.60;99.90;;;;;;5055454;28;20178;-70
2022/04/20 04:32:14;;;;;;;7.20;3.70;;;2.60;99.90;;;;;;5055533;28;20198;-70
2022/04/20 04:34:40;;;;;;;4.77;3.40;;;2.60;99.90;;;;;;5055357;28;20265;-70
2022/04/20 04:37:06;;;;;;;6.03;3.30;;;2.50;99.90;;;;;;5056584;28;20204;-70
2022/04/20 04:39:32;;;;;;;12.20;3.60;;;2.50;99.90;;;;;;5054620;28;20178;-71
2022/04/20 04:42:00;;;;;;;4.47;3.40;;;2.50;99.90;;;;;;5055874;28;20188;-70
2022/04/20 04:44:26;;;;;;;6.00;3.87;;;2.60;99.90;;;;;;5056266;28;20209;-70
2022/04/20 04:49:36;;;;;;;7.40;4.43;;;2.70;99.90;;;;;;5056805;28;20173;-68
2022/04/20 04:52:04;;;;;;;9.07;4.43;;;2.70;99.90;;;;;;5054981;28;20214;-70
2022/04/20 04:54:30;;;;;;;26.70;19.60;;;2.70;99.90;;;;;;5056382;28;20239;-70
2022/04/20 04:56:55;;;;;;;7.80;5.20;;;2.70;99.90;;;;;;5055321;28;20198;-70
2022/04/20 04:59:21;;;;;;;5.87;4.20;;;2.70;99.90;;;;;;5055785;28;20166;-68
2022/04/20 05:01:46;;;;;;;4.63;3.93;;;2.70;99.90;;;;;;5056374;28;20171;-68
2022/04/20 05:04:12;;;;;;;6.20;3.60;;;2.80;99.90;;;;;;5056271;28;20174;-68
2022/04/20 05:06:38;;;;;;;6.93;3.67;;;2.90;99.60;;;;;;5054918;28;20248;-67
2022/04/20 05:09:03;;;;;;;9.63;3.53;;;2.90;99.90;;;;;;5054421;28;20209;-67
2022/04/20 05:11:29;;;;;;;16.23;4.10;;;2.90;99.90;;;;;;5054221;28;20628;-67
2022/04/20 05:13:55;;;;;;;18.17;10.67;;;3.10;99.90;;;;;;5054988;28;20201;-69
2022/04/20 05:16:21;;;;;;;11.20;7.20;;;3.10;99.90;;;;;;5054010;28;20206;-69
2022/04/20 05:18:47;;;;;;;9.93;7.67;;;3.10;99.90;;;;;;5054415;28;20201;-69
2022/04/20 05:21:13;;;;;;;11.90;7.73;;;3.10;99.90;;;;;;5055507;28;20534;-69
2022/04/20 05:23:39;;;;;;;41.13;14.80;;;3.00;99.90;;;;;;5055190;28;20636;-69
2022/04/20 05:26:04;;;;;;;22.83;8.90;;;3.10;99.90;;;;;;5053918;28;20206;-69
2022/04/20 05:28:30;;;;;;;12.83;5.97;;;3.00;99.90;;;;;;5054760;28;20182;-69
2022/04/20 05:30:55;;;;;;;7.23;4.77;;;3.10;99.90;;;;;;5054606;28;20211;-69
2022/04/20 05:33:21;;;;;;;6.10;3.70;;;3.30;99.90;;;;;;5053735;28;20182;-70
2022/04/20 05:35:46;;;;;;;5.57;3.43;;;3.50;99.90;;;;;;5054035;28;20282;-69
2022/04/20 05:43:41;;;;;;;5.13;3.33;;;4.20;97.90;;;;;;5056113;28;20169;-70
2022/04/20 05:46:07;;;;;;;5.47;3.80;;;4.40;96.80;;;;;;5054190;28;20198;-70
2022/04/20 05:48:33;;;;;;;6.87;3.80;;;4.50;95.70;;;;;;5053746;28;20174;-71
2022/04/20 05:50:59;;;;;;;5.00;3.30;;;4.70;95.30;;;;;;5052476;28;20274;-71
2022/04/20 05:53:24;;;;;;;4.37;3.93;;;4.70;94.10;;;;;;5053683;28;20685;-71
2022/04/20 05:55:50;;;;;;;4.90;3.80;;;4.80;94.80;;;;;;5053777;28;20202;-71
2022/04/20 05:58:15;;;;;;;6.97;3.43;;;4.90;94.20;;;;;;5054974;28;20300;-70
2022/04/20 06:00:41;;;;;;;12.40;3.60;;;4.90;94.20;;;;;;5053174;28;20185;-70
2022/04/20 06:03:07;;;;;;;7.00;3.60;;;5.10;94.40;;;;;;5053669;28;20185;-70
2022/04/20 06:05:32;;;;;;;4.67;3.50;;;5.20;93.90;;;;;;5053139;28;20200;-70
2022/04/20 06:07:58;;;;;;;4.13;3.23;;;5.40;93.20;;;;;;5053447;28;20232;-70
2022/04/20 06:10:24;;;;;;;19.97;3.70;;;5.60;92.80;;;;;;5054236;28;20194;-70
2022/04/20 06:12:49;;;;;;;6.60;3.23;;;5.70;92.50;;;;;;5053303;28;20671;-69
2022/04/20 06:15:15;;;;;;;4.13;3.37;;;5.90;91.90;;;;;;5053314;28;20180;-69
2022/04/20 06:17:41;;;;;;;9.00;3.60;;;5.80;91.30;;;;;;5052881;28;20184;-69
2022/04/20 06:20:07;;;;;;;13.90;3.93;;;5.90;91.20;;;;;;5052933;28;20261;-68
2022/04/20 06:22:33;;;;;;;11.97;4.00;;;6.00;91.90;;;;;;5052773;28;20285;-69
2022/04/20 06:24:58;;;;;;;6.43;3.77;;;6.20;92.10;;;;;;5053050;28;20178;-69
2022/04/20 06:27:31;;;;;;;5.13;3.43;;;6.20;90.30;;;;;;5053394;28;20255;-69
2022/04/20 06:29:57;;;;;;;4.50;3.43;;;6.40;90.20;;;;;;5054182;28;20261;-70
2022/04/20 06:32:27;;;;;;;3.40;3.10;;;6.40;90.20;;;;;;5053204;28;20564;-69
2022/04/20 06:34:54;;;;;;;7.90;3.63;;;6.50;90.10;;;;;;5053485;28;20205;-70
2022/04/20 06:37:22;;;;;;;3.57;3.27;;;6.60;89.20;;;;;;5052535;28;20239;-71
2022/04/20 06:39:49;;;;;;;4.67;3.63;;;6.70;88.60;;;;;;5052872;28;20190;-70
2022/04/20 06:42:15;;;;;;;5.55;3.65;;;6.80;88.40;;;;;;5052317;28;20649;-70
2022/04/20 06:44:41;;;;;;;4.13;3.33;;;6.90;87.00;;;;;;5052427;28;20231;-70
2022/04/20 06:47:07;;;;;;;3.85;3.22;;;7.10;86.50;;;;;;5052529;28;20206;-68
2022/04/20 06:49:33;;;;;;;5.63;4.50;;;7.30;85.50;;;;;;5052874;28;20185;-70
2022/04/20 07:00:19;;;;;;;6.40;3.60;;;7.90;82.30;;;;;;5053721;28;20216;-69
2022/04/20 07:02:44;;;;;;;4.15;3.20;;;8.00;82.50;;;;;;5052888;28;20178;-70
2022/04/20 07:05:10;;;;;;;10.40;3.92;;;8.10;81.80;;;;;;5053141;28;20170;-70
2022/04/20 07:07:36;;;;;;;4.30;3.55;;;8.30;80.50;;;;;;5052214;28;20553;-68
2022/04/20 07:10:05;;;;;;;4.65;3.40;;;8.30;78.80;;;;;;5052220;28;20194;-68
2022/04/20 07:12:31;;;;;;;3.63;3.33;;;8.20;78.30;;;;;;5035884;28;20232;-67
2022/04/20 07:14:58;;;;;;;5.65;3.70;;;8.40;76.90;;;;;;5052427;28;20256;-67
2022/04/20 07:17:23;;;;;;;5.72;3.55;;;8.50;77.90;;;;;;5051962;28;20569;-67
2022/04/20 07:19:49;;;;;;;10.38;3.90;;;8.60;76.20;;;;;;5052164;28;20166;-68
2022/04/20 07:22:15;;;;;;;6.03;3.42;;;8.70;75.10;;;;;;5052474;28;20186;-66
2022/04/20 07:24:40;;;;;;;9.52;3.50;;;8.80;75.40;;;;;;5053006;28;20308;-66
2022/04/20 07:27:06;;;;;;;3.97;3.58;;;8.90;74.90;;;;;;5052186;28;20285;-67
2022/04/20 07:29:31;;;;;;;7.05;3.63;;;8.90;75.50;;;;;;5052398;28;20205;-66
2022/04/20 07:32:05;;;;;;;5.22;3.50;;;9.10;74.50;;;;;;5052914;28;20209;-73
2022/04/20 07:34:30;;;;;;;3.67;3.35;;;9.30;73.10;;;;;;5053421;28;20645;-67
2022/04/20 07:36:56;;;;;;;5.18;3.40;;;9.20;71.30;;;;;;5051831;28;20202;-67
2022/04/20 07:39:21;;;;;;;4.75;3.47;;;9.20;71.60;;;;;;5053762;28;20236;-66
2022/04/20 07:41:47;;;;;;;6.70;3.55;;;9.30;71.60;;;;;;5051489;28;20185;-68
2022/04/20 07:44:13;;;;;;;4.97;3.80;;;9.40;70.90;;;;;;5052297;28;20186;-67
2022/04/20 07:46:38;;;;;;;4.20;3.55;;;9.60;70.10;;;;;;5052835;28;20213;-67
2022/04/20 07:50:18;;;;;;;5.63;3.83;;;9.50;68.40;;;;;;5052371;28;20178;-68
2022/04/20 07:51:49;;;;;;;4.90;3.78;;;9.60;67.60;;;;;;5052681;28;20205;-68
2022/04/20 07:54:15;;;;;;;5.35;3.72;;;9.50;68.40;;;;;;5052267;28;20220;-67
2022/04/20 07:56:40;;;;;;;5.55;3.63;;;9.70;68.00;;;;;;5052869;28;20198;-68
2022/04/20 07:59:06;;;;;;;5.38;3.70;;;10.10;67.00;;;;;;5052177;28;20182;-66
2022/04/20 08:01:32;;;;;;;5.85;3.92;;;10.00;58.90;;;;;;5052482;28;20668;-66
2022/04/20 08:03:58;;;;;;;6.85;3.88;;;10.10;60.90;;;;;;5053066;28;20266;-68
2022/04/20 08:06:24;;;;;;;6.30;3.80;;;10.40;62.00;;;;;;5051588;28;20311;-68
2022/04/20 08:08:49;;;;;;;4.15;3.85;;;10.50;53.60;;;;;;5051497;28;20217;-68
2022/04/20 08:11:15;;;;;;;3.58;3.28;;;10.70;52.50;;;;;;5051465;28;20213;-67
2022/04/20 08:16:28;;;;;;;4.95;3.55;;;10.80;50.40;;;;;;5057472;28;20201;-70
2022/04/20 08:18:54;;;;;;;4.00;3.70;;;10.60;49.50;;;;;;5054955;28;20178;-71
2022/04/20 08:21:20;;;;;;;3.70;3.40;;;10.50;49.00;;;;;;5055767;28;20174;-70
2022/04/20 08:23:45;;;;;;;3.58;3.28;;;10.40;49.40;;;;;;5055332;28;20185;-69
2022/04/20 08:26:13;;;;;;;3.85;3.47;;;10.40;50.30;;;;;;5055311;28;20205;-70
2022/04/20 08:28:39;;;;;;;4.25;3.30;;;10.60;52.20;;;;;;5054952;28;20248;-67
2022/04/20 08:31:05;;;;;;;4.28;3.58;;;11.00;53.60;;;;;;5056646;28;20656;-68
2022/04/20 08:33:30;;;;;;;4.70;4.18;;;11.30;52.10;;;;;;5055489;28;20189;-67
2022/04/20 08:35:56;;;;;;;6.10;4.10;;;11.30;50.70;;;;;;5055222;28;20224;-70
2022/04/20 08:38:22;;;;;;;4.75;3.13;;;11.20;50.50;;;;;;5054604;28;20189;-71
2022/04/20 08:40:50;;;;;;;4.07;3.63;;;11.10;50.50;;;;;;5054729;28;20676;-70
2022/04/20 08:43:16;;;;;;;5.35;4.13;;;11.00;50.90;;;;;;5054992;28;20178;-70
2022/04/20 08:45:42;;;;;;;6.13;3.58;;;11.00;51.30;;;;;;5054662;28;20248;-69
2022/04/20 08:48:08;;;;;;;3.90;3.60;;;11.20;51.70;;;;;;5054530;28;20190;-69
2022/04/20 08:50:34;;;;;;;3.67;3.38;;;11.40;52.10;;;;;;5054893;28;20174;-69
2022/04/20 08:53:01;;;;;;;4.35;3.17;;;11.50;51.40;;;;;;5054494;28;20603;-70
2022/04/20 08:55:27;;;;;;;5.72;3.40;;;11.60;51.10;;;;;;5054017;28;20171;-68
2022/04/20 08:57:53;;;;;;;4.38;2.92;;;11.50;50.70;;;;;;5054163;28;20177;-67
2022/04/20 09:00:25;;;;;;;3.47;3.17;;;11.60;50.70;;;;;;5054996;28;20178;-69
2022/04/20 09:02:53;;;;;;;3.50;3.20;;;11.80;51.50;;;;;;5055660;28;20170;-68
2022/04/20 09:05:20;;;;;;;3.30;3.00;;;12.10;51.10;;;;;;5056446;28;20167;-68
2022/04/20 09:07:46;;;;;;;4.07;3.30;;;12.40;50.80;;;;;;5055038;28;20656;-68
2022/04/20 09:10:12;;;;;;;3.40;3.10;;;12.60;50.80;;;;;;5054304;28;20190;-68
2022/04/20 09:12:42;;;;;;;5.25;3.88;;;12.70;48.80;;;;;;5054566;28;20202;-68
2022/04/20 09:15:09;;;;;;;4.03;3.63;;;12.40;48.60;;;;;;5054339;28;20256;-68
2022/04/20 09:17:46;;;;;;;4.35;3.65;;;12.10;49.20;;;;;;5054516;28;20197;-68
2022/04/20 09:20:17;;;;;;;4.25;3.70;;;12.10;49.50;;;;;;5055151;28;20181;-68
2022/04/20 09:22:59;;;;;;;4.78;3.50;;;12.10;50.30;;;;;;5054564;28;20181;-68
2022/04/20 09:25:34;;;;;;;6.75;4.38;;;12.40;50.70;;;;;;5053629;28;20166;-68
2022/04/20 09:28:00;;;;;;;4.25;3.65;;;12.40;49.60;;;;;;5055871;28;20223;-68
2022/04/20 09:30:32;;;;;;;3.70;3.30;;;12.40;48.70;;;;;;5055559;28;20170;-68
2022/04/20 09:32:57;;;;;;;3.47;3.17;;;12.50;50.10;;;;;;5053878;28;20198;-66
2022/04/20 09:35:23;;;;;;;3.70;3.40;;;12.80;50.20;;;;;;5053858;28;20197;-67
2022/04/20 09:38:06;;;;;;;3.40;3.10;;;12.80;48.40;;;;;;5053728;28;20591;-67
2022/04/20 09:40:37;;;;;;;4.05;3.13;;;12.90;48.80;;;;;;5053578;28;20668;-67
2022/04/20 09:43:15;;;;;;;4.28;3.13;;;13.00;48.80;;;;;;5054187;28;20174;-68
2022/04/20 09:45:41;;;;;;;6.28;2.90;;;13.20;49.20;;;;;;5053718;28;20307;-68
2022/04/20 09:51:14;;;;;;;7.85;2.95;;;13.40;48.00;;;;;;5054912;28;20201;-68
2022/04/20 09:53:41;;;;;;;5.32;3.20;;;13.50;48.00;;;;;;5054967;28;20218;-68
2022/04/20 09:56:25;;;;;;;3.22;2.75;;;13.50;48.20;;;;;;5053630;28;20294;-68
2022/04/20 09:59:03;;;;;;;3.60;3.03;;;13.50;47.10;;;;;;5053684;28;20178;-68
2022/04/20 10:01:34;;;;;;;6.50;2.53;;;13.30;47.30;;;;;;5054022;28;20178;-68
2022/04/20 10:04:02;;;;;;;3.80;3.22;;;13.40;48.30;;;;;;5053777;28;20265;-69
2022/04/20 10:06:28;;;;;;;4.07;2.80;;;13.40;46.90;;;;;;5054765;28;20190;-69
2022/04/20 10:08:54;;;;;;;3.30;2.97;;;13.40;47.30;;;;;;5060738;28;20209;-69
2022/04/20 10:11:22;;;;;;;5.57;2.80;;;13.40;47.30;;;;;;5053600;28;20343;-69
2022/04/20 10:16:44;;;;;;;4.38;2.53;;;13.40;47.60;;;;;;5055108;28;20305;-68
2022/04/20 10:19:13;;;;;;;11.15;3.00;;;13.30;45.50;;;;;;5065688;28;20170;-68
2022/04/20 10:21:48;;;;;;;3.78;2.40;;;13.40;46.00;;;;;;5066628;28;20189;-68
2022/04/20 10:24:22;;;;;;;4.05;2.33;;;13.50;45.90;;;;;;5066674;28;20177;-68
2022/04/20 10:26:52;;;;;;;4.45;2.47;;;13.60;47.40;;;;;;5066954;28;20201;-68
2022/04/20 10:29:34;;;;;;;4.53;2.40;;;13.70;45.60;;;;;;5066397;28;20167;-67
2022/04/20 10:32:05;;;;;;;4.38;2.85;;;13.60;45.10;;;;;;5067063;28;20206;-67
2022/04/20 10:34:34;;;;;;;3.10;2.60;;;13.70;45.70;;;;;;5066852;28;20243;-68
2022/04/20 10:37:03;;;;;;;3.47;2.53;;;13.80;45.70;;;;;;5065977;28;20198;-67
2022/04/20 10:39:41;;;;;;;6.43;3.38;;;13.90;44.60;;;;;;5068050;28;20178;-67
2022/04/20 10:42:11;;;;;;;2.60;2.42;;;13.80;45.10;;;;;;5067111;28;20174;-68
2022/04/20 10:44:55;;;;;;;4.20;2.63;;;13.80;44.00;;;;;;5054149;28;20186;-70
2022/04/20 10:47:42;;;;;;;2.38;2.00;;;13.60;44.30;;;;;;5054219;28;20209;-70
2022/04/20 10:50:20;;;;;;;4.45;2.20;;;13.50;44.00;;;;;;5052528;28;20181;-68
2022/04/20 10:53:02;;;;;;;5.30;2.35;;;13.60;44.60;;;;;;5052542;28;20186;-69
2022/04/20 10:55:31;;;;;;;2.58;2.20;;;13.70;44.20;;;;;;5053545;28;20170;-70
2022/04/20 10:58:01;;;;;;;2.17;1.95;;;13.60;44.20;;;;;;5052783;28;20185;-68
2022/04/20 11:00:36;;;;;;;2.50;2.20;;;13.60;44.40;;;;;;5053636;28;20163;-68
2022/04/20 11:03:50;;;;;;;2.47;2.20;;;13.70;44.40;;;;;;5053748;28;20602;-68
2022/04/20 11:06:16;;;;;;;2.83;2.15;;;13.90;45.70;;;;;;5051490;28;20198;-68
2022/04/20 11:08:41;;;;;;;2.85;2.30;;;14.00;45.40;;;;;;5050633;28;20625;-67
2022/04/20 11:19:52;;;;;;;2.92;2.65;;;14.20;44.90;;;;;;5054338;28;20211;-67
2022/04/20 11:22:19;;;;;;;3.40;2.28;;;14.20;44.30;;;;;;5052817;28;20212;-67
2022/04/20 11:24:45;;;;;;;2.45;2.25;;;14.30;44.70;;;;;;5051845;28;20217;-67
2022/04/20 11:27:11;;;;;;;4.00;2.20;;;14.40;45.50;;;;;;5052751;28;20206;-70
2022/04/20 11:29:37;;;;;;;6.25;2.53;;;14.30;43.80;;;;;;5053173;28;20277;-68
2022/04/20 11:32:09;;;;;;;2.30;2.10;;;14.20;44.60;;;;;;5051937;28;20236;-68
2022/04/20 11:34:36;;;;;;;2.50;2.30;;;14.30;44.20;;;;;;5053267;28;20229;-68
2022/04/20 11:37:06;;;;;;;4.78;2.10;;;14.40;45.80;;;;;;5052275;28;20201;-68
2022/04/20 11:39:32;;;;;;;2.63;2.08;;;14.50;46.00;;;;;;5052161;28;20220;-68
2022/04/20 11:42:02;;;;;;;2.38;2.17;;;14.40;44.10;;;;;;5051924;28;20189;-68
2022/04/20 11:44:36;;;;;;;3.70;2.78;;;14.40;45.30;;;;;;5052224;28;20551;-67
2022/04/20 11:47:04;;;;;;;3.53;2.00;;;14.50;45.10;;;;;;5052363;28;20200;-68
2022/04/20 11:49:48;;;;;;;5.93;2.28;;;14.40;44.80;;;;;;5057250;28;20281;-67
2022/04/20 11:52:16;;;;;;;4.03;2.40;;;14.40;45.00;;;;;;5055640;28;20210;-67
2022/04/20 11:54:48;;;;;;;3.85;2.30;;;14.50;45.20;;;;;;5056939;28;20177;-68
2022/04/20 11:57:56;;;;;;;3.70;2.47;;;14.70;45.00;;;;;;5057035;28;20201;-68
2022/04/20 12:00:25;;;;;;;2.65;2.38;;;14.90;45.00;;;;;;5055826;28;20162;-69
2022/04/20 12:02:50;;;;;;;3.40;2.20;;;15.00;45.50;;;;;;5056854;28;20181;-69
2022/04/20 12:05:16;;;;;;;9.85;3.03;;;14.90;45.00;;;;;;5057147;28;20182;-67
2022/04/20 12:07:41;;;;;;;2.35;2.15;;;15.00;45.50;;;;;;5055920;28;20181;-67
2022/04/20 12:10:08;;;;;;;3.22;2.22;;;15.30;44.60;;;;;;5055734;28;20194;-67
2022/04/20 12:12:33;;;;;;;3.05;2.40;;;15.50;44.30;;;;;;5055439;28;20392;-68
2022/04/20 12:15:08;;;;;;;2.60;2.40;;;15.80;44.00;;;;;;5056313;28;20629;-67
2022/04/20 12:17:35;;;;;;;2.20;2.00;;;15.80;43.40;;;;;;5055259;28;20745;-68
2022/04/20 12:20:01;;;;;;;3.58;2.40;;;15.60;44.00;;;;;;5056094;28;20228;-68
2022/04/20 12:22:26;;;;;;;3.17;2.28;;;15.60;45.10;;;;;;5055478;28;20263;-68
2022/04/20 12:25:10;;;;;;;3.25;2.38;;;15.60;45.20;;;;;;5056749;28;20182;-68
2022/04/20 12:27:56;;;;;;;5.50;2.50;;;15.60;45.40;;;;;;5054867;28;20198;-68
2022/04/20 12:30:46;;;;;;;7.22;3.67;;;15.80;45.50;;;;;;5055025;28;20210;-68
2022/04/20 12:33:22;;;;;;;2.50;2.30;;;15.80;44.90;;;;;;5056207;28;20167;-68
2022/04/20 12:36:06;;;;;;;3.28;2.60;;;15.90;45.10;;;;;;5054683;28;20624;-68
2022/04/20 12:38:45;;;;;;;2.78;2.58;;;16.10;45.20;;;;;;5056704;28;20169;-68
2022/04/20 12:41:46;;;;;;;3.55;2.60;;;16.20;44.30;;;;;;5056110;28;20167;-69
2022/04/20 12:44:37;;;;;;;3.95;2.25;;;16.30;44.60;;;;;;5055503;28;20266;-67
2022/04/20 12:47:11;;;;;;;4.50;2.40;;;16.50;45.20;;;;;;5055019;28;20240;-67
2022/04/20 12:49:37;;;;;;;4.75;2.38;;;16.60;45.40;;;;;;5055072;28;20184;-67
2022/04/20 12:52:10;;;;;;;5.93;2.88;;;16.30;43.60;;;;;;5054847;28;20206;-67
2022/04/20 12:54:36;;;;;;;5.78;2.72;;;15.60;44.30;;;;;;5054550;28;20181;-68
2022/04/20 13:02:31;;;;;;;3.30;2.90;;;14.80;46.50;;;;;;5056116;28;20173;-68
2022/04/20 13:04:57;;;;;;;3.25;2.30;;;14.90;47.30;;;;;;5054355;28;20277;-68
2022/04/20 13:07:22;;;;;;;4.28;2.40;;;15.00;47.60;;;;;;5054379;28;20285;-68
2022/04/20 13:09:48;;;;;;;3.08;2.75;;;15.00;47.50;;;;;;5054175;28;20669;-68
2022/04/20 13:12:14;;;;;;;4.22;3.13;;;15.10;47.00;;;;;;5054379;28;20201;-68
2022/04/20 13:14:41;;;;;;;3.60;2.88;;;15.20;47.80;;;;;;5054829;28;20209;-68
2022/04/20 13:17:09;;;;;;;3.13;2.72;;;15.30;46.90;;;;;;5054157;28;20217;-69
2022/04/20 13:19:38;;;;;;;5.35;2.50;;;15.40;46.10;;;;;;5053797;28;20178;-68
2022/04/20 13:22:04;;;;;;;2.60;2.40;;;15.60;47.20;;;;;;5055509;28;20200;-68
2022/04/20 13:30:09;;;;;;;4.47;2.78;;;16.30;44.40;;;;;;5055669;28;20161;-68
2022/04/20 13:32:35;;;;;;;2.90;2.50;;;16.60;45.10;;;;;;5053854;28;20205;-68
2022/04/20 13:35:00;;;;;;;4.45;2.85;;;16.80;44.90;;;;;;5055051;28;20182;-68
2022/04/20 13:37:26;;;;;;;4.03;2.97;;;16.80;45.50;;;;;;5053980;28;20221;-68
2022/04/20 13:39:52;;;;;;;6.43;3.85;;;16.90;45.10;;;;;;5054921;28;20591;-68
2022/04/20 13:42:17;;;;;;;5.70;3.45;;;16.90;46.00;;;;;;5054474;28;20189;-67
2022/04/20 13:44:43;;;;;;;6.63;2.97;;;16.80;46.00;;;;;;5053639;28;20182;-68
2022/04/20 13:47:08;;;;;;;6.75;3.25;;;16.60;46.20;;;;;;5054873;28;20194;-67